CST,Max TemperatureF,Mean TemperatureF,Min TemperatureF,Max Dew PointF,MeanDew PointF,Min DewpointF,Max Humidity, Mean Humidity, Min Humidity, Max Sea Level PressureIn, Mean Sea Level PressureIn, Min Sea Level PressureIn, Max VisibilityMiles, Mean VisibilityMiles, Min VisibilityMiles, Max Wind SpeedMPH, Mean Wind SpeedMPH, Max Gust SpeedMPH,PrecipitationIn, CloudCover, Events, WindDirDegrees
2012-11-1,52,43,33,39,34,26,89,71,53,30.09,30.03,29.97,10,9,3,17,6,21,0.00,3,,359
2012-11-2,48,39,29,29,27,25,78,62,46,30.15,30.06,30.01,10,10,10,15,6,18,0.00,0,,82
2012-11-3,51,37,22,33,29,22,96,73,50,30.27,30.21,30.15,10,10,7,9,3,13,0.00,3,,334
2012-11-4,56,47,37,45,38,32,100,76,43,30.21,30.12,30.04,10,8,4,16,6,21,0.12,6,Rain,97
2012-11-5,44,41,37,42,36,33,93,84,68,30.22,30.14,30.02,10,9,6,20,10,23,T,8,,318
2012-11-6,55,45,35,38,33,30,85,65,45,30.11,30.01,29.91,10,10,10,36,17,43,T,2,,308
2012-11-7,53,40,27,33,30,26,100,74,48,30.20,30.11,30.01,10,10,10,13,7,16,0.00,0,,177
2012-11-8,64,50,35,35,33,29,76,55,34,29.99,29.92,29.87,10,10,10,20,10,24,0.00,0,,148
2012-11-9,62,47,32,46,39,30,96,75,53,29.93,29.82,29.64,10,9,7,16,8,22,0.00,1,,62
2012-11-10,62,49,35,52,45,32,100,76,52,29.70,29.55,29.45,10,7,0,18,9,36,0.95,4,Fog-Rain-Thunderstorm,308
2012-11-11,34,27,20,28,17,12,89,71,53,30.19,29.98,29.71,10,10,10,31,19,40,0.00,4,,309
2012-11-12,36,27,18,17,15,12,77,59,40,30.40,30.28,30.14,10,10,10,23,11,30,0.00,0,,282
2012-11-13,50,34,17,30,23,14,92,69,46,30.40,30.32,30.24,10,10,10,15,6,20,0.00,2,,124
2012-11-14,54,40,25,34,28,23,92,67,41,30.32,30.25,30.16,10,10,10,12,4,15,0.00,1,,153
2012-11-15,55,43,30,35,30,21,89,68,46,30.50,30.35,30.18,10,10,10,17,7,21,0.00,2,,354
2012-11-16,51,35,19,32,26,16,92,70,48,30.51,30.41,30.30,10,10,10,15,6,20,0.00,0,,140
2012-11-17,62,47,31,37,34,30,89,64,39,30.30,30.20,30.12,10,10,9,26,12,32,0.00,1,,146
2012-11-18,62,48,34,36,32,28,73,56,34,30.12,30.07,30.01,10,10,10,20,11,25,0.00,1,,145
2012-11-19,58,46,34,39,35,31,89,71,45,30.17,30.06,29.99,10,10,10,20,9,23,0.00,0,,328
2012-11-20,61,42,22,36,31,24,96,69,38,30.26,30.17,30.08,10,10,7,13,7,15,0.00,0,,135
2012-11-21,72,55,38,44,39,32,76,51,27,30.07,29.91,29.75,10,10,10,31,16,39,0.00,0,,187
2012-11-22,59,47,35,44,35,20,96,64,41,30.25,29.94,29.69,10,10,9,36,17,44,T,2,Snow,314
2012-11-23,36,25,14,17,11,8,74,58,39,30.55,30.46,30.28,10,10,9,40,17,51,T,2,Snow,321
2012-11-24,40,27,13,23,16,9,81,58,34,30.42,30.10,29.90,10,10,10,23,8,29,0.00,0,,140
2012-11-25,37,33,28,27,24,22,78,69,59,30.24,30.06,29.91,10,10,10,14,8,15,0.00,6,,335
2012-11-26,33,22,10,23,14,6,84,70,55,30.51,30.43,30.24,10,10,10,17,7,22,0.00,4,,357
2012-11-27,43,26,8,26,17,5,88,70,51,30.47,30.31,30.17,10,10,10,22,8,26,0.00,0,,202
2012-11-28,47,30,13,28,20,12,96,67,38,30.42,30.27,30.09,10,10,9,18,7,22,0.00,0,,140
2012-11-29,50,35,20,31,25,19,92,71,50,30.06,30.00,29.93,10,10,7,10,4,10,0.00,0,,103
2012-11-30,43,33,23,31,26,21,92,75,57,30.15,30.06,29.97,10,8,5,16,7,18,0.00,0,,17